VNKT/KTM METAR and TAF weather

Enter ICAO airport designator
Station Type Date Time Source
VNKT METAR 2020/09/26 19:50 UTC NOAA

VNKT 261950Z 00000KT 7000 FEW015 SCT030 BKN100 20/20 Q1012 NOSIG


Station Type Date Time Source
VNKT Decoded METAR 2020/09/26 19:50 UTC NOAA

Kathmandu Airport, Nepal (VNKT) 27-42N 085-22E 1337M
Sep 26, 2020 - 03:50 PM EDT / 2020.09.26 1950 UTC
Wind: Calm:0
Visibility: 4 mile(s):0
Sky conditions: mostly cloudy
Temperature: 68 F (20 C)
Dew Point: 68 F (20 C)
Relative Humidity: 100%
Pressure (altimeter): 29.88 in. Hg (1012 hPa)
ob: VNKT 261950Z 00000KT 7000 FEW015 SCT030 BKN100 20/20 Q1012 NOSIG
cycle: 20

Station Type Date Time Source
VNKT TAF 2020/09/26 18:51 UTC NOAA

TAF VNKT 261700Z 2618/2718 16004KT 7000 FEW015
BECMG 2701/2703 14005KT 8000 FEW010 SCT030 BKN100
BECMG 2705/2706 26007KT 9999 FEW015 SCT030 BKN100 PROB30 2708/2712 5000 -RA
BECMG 2713/2714 22003KT 7000 FEW015 SCT030

Example: see airport list